Terminal Aerodrome Forecast
Issued by NWS Paducah, KY

Home | Current Version | Previous Version | Text Only | Print | Product List | Glossary On
Versions: 1 2 3 4 5 6 7 8 9 10 11 12 13 14 15 16
241
FTUS43 KPAH 241730
TAFPAH
TAF
KPAH 241730Z 2418/2518 VRB03KT P6SM FEW060
     FM250700 00000KT 5SM BR BCFG FEW060
     FM251300 VRB03KT P6SM SCT060=

USA.gov is the U.S. government's official web portal to all federal, state and local government web resources and services.